Weather reports worldwide

Advertisment
Cairngorm, United Kingdom (3065): temperature & dewpoint: 20.05.2020 14:00:00 - 26.05.2020 14:00:00 (BST)Cairngorm, United Kingdom (3065): wind speed & gusts: 20.05.2020 14:00:00 - 26.05.2020 14:00:00 (BST)Cairngorm, United Kingdom (3065): wind direction: 20.05.2020 14:00:00 - 26.05.2020 14:00:00 (BST)
Date & Time tt [°C] td [°C] ff [km/h] ff [kn] fx [km/h] fx [kn] dd
26.05.2020 14:00:00 6,1 -0,2 39 21 57 31 W
26.05.2020 13:00:00 5,0 0,0 44 24 67 36 WNW
26.05.2020 12:00:00 4,2 0,7 54 29 68 37 W
26.05.2020 11:00:00 3,6 0,7 46 25 63 34 W
26.05.2020 10:00:00 2,5 0,4 57 31 80 43 W
26.05.2020 09:00:00 1,7 -0,3 46 25 65 35 W
26.05.2020 08:00:00 1,6 -0,9 26 14 50 27 NNW
26.05.2020 07:00:00 3,8 -9,0 35 19 55 30 WSW
26.05.2020 06:00:00 5,1 -11,6 26 14 74 40 WSW
26.05.2020 05:00:00 4,8 -7,9 54 29 83 45 WSW
26.05.2020 04:00:00 5,4 -2,2 54 29 98 53 WSW
26.05.2020 03:00:00 4,8 4,7 70 38 106 57 WSW
26.05.2020 02:00:00 5,0 5,0 81 44 107 58 WSW
26.05.2020 01:00:00 5,1 5,1 63 34 81 44 WSW
26.05.2020 00:00:00 5,0 5,0 48 26 78 42 WSW
25.05.2020 23:00:00 4,9 4,9 57 31 104 56 WSW
25.05.2020 22:00:00 4,6 4,6 72 39 102 55 WSW
25.05.2020 21:00:00 4,7 4,7 70 38 94 51 WSW
25.05.2020 20:00:00 6,1 4,1 65 35 83 45 SW
25.05.2020 19:00:00 6,1 2,9 68 37 85 46 SW
25.05.2020 18:00:00 6,5 2,6 54 29 80 43 SW
25.05.2020 17:00:00 6,8 3,2 52 28 78 42 SSW
25.05.2020 16:00:00 6,9 2,7 65 35 93 50 SSW
25.05.2020 15:00:00 7,4 4,5 74 40 91 49 SSW
25.05.2020 14:00:00 7,4 5,0 67 36 85 46 SSW
25.05.2020 13:00:00 7,7 7,3 52 28 70 38 SSW
25.05.2020 12:00:00 6,8 6,7 44 24 63 34 S
25.05.2020 11:00:00 5,9 5,9 41 22 55 30 S
25.05.2020 10:00:00 5,6 5,5 29 16 48 26 SSW
25.05.2020 09:00:00 4,4 4,4 35 19 61 33 SSW
25.05.2020 08:00:00 4,6 4,6 50 27 87 47 SW
25.05.2020 07:00:00 5,0 5,0 57 31 83 45 WSW
25.05.2020 06:00:00 3,9 3,9 37 20 76 41 W
25.05.2020 05:00:00 3,0 2,9 21 11 85 46 WSW
25.05.2020 04:00:00 2,6 2,6 46 25 83 45 W
25.05.2020 03:00:00 3,0 2,9 61 33 89 48 W
25.05.2020 02:00:00 3,0 3,0 61 33 98 53 W
25.05.2020 01:00:00 2,8 2,7 67 36 100 54 W
25.05.2020 00:00:00 2,3 2,3 54 29 83 45 W
24.05.2020 23:00:00 2,3 2,3 61 33 91 49 WSW
24.05.2020 22:00:00 2,4 2,4 41 22 68 37 WSW
24.05.2020 21:00:00 2,7 2,6 55 30 80 43 W
24.05.2020 20:00:00 3,5 3,4 57 31 87 47 WSW
24.05.2020 19:00:00 3,7 3,7 68 37 100 54 W
24.05.2020 18:00:00 3,8 3,8 55 30 87 47 W
24.05.2020 17:00:00 3,7 3,7 70 38 96 52 W
24.05.2020 16:00:00 4,0 3,9 78 42 100 54 W
24.05.2020 15:00:00 4,7 4,7 78 42 111 60 W
24.05.2020 14:00:00 5,2 5,2 78 42 109 59 WNW
24.05.2020 13:00:00 4,9 4,8 91 49 113 61 W
24.05.2020 12:00:00 4,7 4,7 81 44 107 58 WNW
24.05.2020 11:00:00 4,4 4,4 87 47 120 65 W
24.05.2020 10:00:00 4,1 4,1 98 53 119 64 W
24.05.2020 09:00:00 3,6 3,6 106 57 128 69 W
24.05.2020 08:00:00 3,3 3,3 102 55 143 77 WNW
24.05.2020 07:00:00 2,7 2,7 111 60 143 77 WNW
24.05.2020 06:00:00 1,9 1,9 106 57 133 72 W
24.05.2020 05:00:00 0,8 0,8 89 48 115 62 W
24.05.2020 04:00:00 0,1 0,1 74 40 128 69 W
24.05.2020 03:00:00 0,3 0,3 107 58 135 73 W
24.05.2020 02:00:00 0,6 0,5 100 54 146 79 W
24.05.2020 01:00:00 1,1 1,0 100 54 137 74 W
24.05.2020 00:00:00 0,9 0,9 102 55 156 84 W
23.05.2020 23:00:00 0,6 0,6 120 65 154 83 W
23.05.2020 22:00:00 0,6 0,6 111 60 157 85 W
23.05.2020 21:00:00 0,2 0,2 115 62 152 82 W
23.05.2020 20:00:00 0,6 0,6 115 62 146 79 W
23.05.2020 19:00:00 1,4 1,3 120 65 152 82 W
23.05.2020 18:00:00 1,9 1,9 93 50 152 82 W
23.05.2020 17:00:00 2,1 2,1 102 55 163 88 W
23.05.2020 16:00:00 2,3 2,3 100 54 141 76 W
23.05.2020 15:00:00 2,1 2,1 93 50 133 72 W
23.05.2020 14:00:00 2,0 2,0 94 51 131 71 W
23.05.2020 13:00:00 2,3 2,3 80 43 131 71 W
23.05.2020 12:00:00 2,1 2,0 93 50 146 79 WSW
23.05.2020 11:00:00 2,1 2,1 83 45 146 79 WSW
23.05.2020 10:00:00 2,1 2,0 102 55 135 73 WSW
23.05.2020 09:00:00 1,2 1,2 74 40 109 59 SW
23.05.2020 08:00:00 -0,4 -0,5 70 38 119 64 SSW
23.05.2020 07:00:00 -0,9 -0,9 89 48 143 77 SW
23.05.2020 06:00:00 -0,5 -0,5 109 59 150 81 SSW
23.05.2020 05:00:00 -0,2 -0,2 93 50 156 84 SSW
23.05.2020 04:00:00 -0,3 -0,3 85 46 169 91 SW
23.05.2020 03:00:00 -0,1 -0,1 100 54 165 89 SW
23.05.2020 02:00:00 0,1 0,1 106 57 170 92 SW
23.05.2020 01:00:00 0,2 0,2 81 44 141 76 SW
23.05.2020 00:00:00 0,7 0,7 113 61 174 94 SW
22.05.2020 23:00:00 0,5 0,5 115 62 159 86 SW
22.05.2020 22:00:00 0,6 0,6 111 60 196 106 SW
22.05.2020 21:00:00 1,5 1,5 143 77 193 104 SW
22.05.2020 20:00:00 1,1 1,1 137 74 191 103 SW
22.05.2020 19:00:00 1,5 1,5 131 71 174 94 SW
22.05.2020 18:00:00 2,2 2,2 115 62 183 99 SW
22.05.2020 17:00:00 2,4 2,4 122 66 165 89 SSW
22.05.2020 16:00:00 2,7 2,7 113 61 157 85 SSW
22.05.2020 15:00:00 3,0 3,0 104 56 146 79 SSW
22.05.2020 14:00:00 3,0 3,0 117 63 141 76 SSW
22.05.2020 13:00:00 2,8 2,8 94 51 143 77 SSW
22.05.2020 12:00:00 2,5 2,5 115 62 137 74 SSW
22.05.2020 11:00:00 2,5 2,5 106 57 128 69 SSW
22.05.2020 10:00:00 4,0 3,9 87 47 113 61 SSW
22.05.2020 09:00:00 3,6 3,6 76 41 120 65 SSW
22.05.2020 08:00:00 4,4 4,4 91 49 122 66 S
22.05.2020 07:00:00 5,2 5,2 111 60 161 87 SSE
22.05.2020 06:00:00 4,8 4,7 130 70 165 89 SE
22.05.2020 05:00:00 3,9 3,9 143 77 161 87 SE
22.05.2020 04:00:00 3,5 3,4 107 58 130 70 SE
22.05.2020 03:00:00 3,5 3,5 109 59 130 70 SE
22.05.2020 02:00:00 3,7 3,7 68 37 94 51 SE
22.05.2020 01:00:00 3,6 3,5 76 41 94 51 SSE
22.05.2020 00:00:00 4,1 4,1 74 40 85 46 SSE
21.05.2020 23:00:00 4,5 4,5 67 36 80 43 SSE
21.05.2020 22:00:00 5,1 5,0 63 34 74 40 SE
21.05.2020 21:00:00 5,1 5,1 31 17 - - ESE
21.05.2020 20:00:00 5,6 4,1 11 6 - - E
21.05.2020 19:00:00 7,7 3,4 8 4 - - WNW
21.05.2020 18:00:00 6,0 3,8 15 8 - - NW
21.05.2020 17:00:00 6,8 3,6 24 13 52 28 WNW
21.05.2020 16:00:00 6,8 3,9 28 15 - - WNW
21.05.2020 15:00:00 6,1 4,1 31 17 48 26 W
21.05.2020 14:00:00 5,6 2,8 37 20 50 27 WNW
21.05.2020 13:00:00 4,0 3,7 31 17 - - W
21.05.2020 12:00:00 3,9 2,9 26 14 - - W
21.05.2020 11:00:00 5,6 3,1 15 8 50 27 SW
21.05.2020 10:00:00 6,5 2,5 35 19 50 27 SW
21.05.2020 09:00:00 7,5 0,8 42 23 54 29 SW
21.05.2020 08:00:00 6,2 0,8 37 20 54 29 SSW
21.05.2020 07:00:00 7,0 0,3 41 22 54 29 SW
21.05.2020 06:00:00 7,9 -3,1 41 22 63 34 SW
21.05.2020 05:00:00 7,6 -3,1 46 25 57 31 SW
21.05.2020 04:00:00 7,1 -1,3 42 23 57 31 WSW
21.05.2020 03:00:00 7,0 -3,1 41 22 57 31 SW
21.05.2020 02:00:00 5,8 0,5 16 9 50 27 S
21.05.2020 01:00:00 7,3 -1,4 44 24 80 43 SSW
21.05.2020 00:00:00 8,8 -5,4 57 31 72 39 SSW
20.05.2020 23:00:00 7,9 2,8 61 33 78 42 S
20.05.2020 22:00:00 8,5 6,2 35 19 76 41 SE
20.05.2020 21:00:00 9,5 6,2 67 36 81 44 S
20.05.2020 20:00:00 10,3 6,0 65 35 74 40 S
20.05.2020 19:00:00 11,3 7,2 59 32 72 39 S
20.05.2020 18:00:00 11,9 6,4 52 28 68 37 S
20.05.2020 17:00:00 12,3 5,8 50 27 65 35 S
20.05.2020 16:00:00 11,9 6,7 37 20 52 28 S
20.05.2020 15:00:00 12,7 7,1 41 22 54 29 S
20.05.2020 14:00:00 11,7 6,5 34 18 46 25 S

tt = temperature
td = dewpoint
ff = wind speed
fx = gusts
dd = wind direction

Next stations